Dynasty — A8TP3 — position and weather

sailwx.info

Track history (hours):
 
Tides and Currents Weather Stations Pressure Air Temp Water Temp Dewpoint Dewpoint Depression Visibility Wind Speed Wind Dir Waves Ship Positions

Dynasty

Last reported at 2017-Dec-18 18:30 UTC. Time now 2017-Dec-18 18:41 UTC.
Position N 44°19' E 037°43'.

Length 241 m; draft 8 m.

Type: Tanker. MMSI: 636014400.

Date/timePositionNaut miles runAvg speedWind from/ knotsBaromVisibWave heightAir tempDewpointWater temp
2017-Dec-18 18:30N 44°19' E 037°43'510.9
2017-Dec-18 18:00N 44°23' E 037°37'5 9.3
2017-Dec-18 17:30N 44°28' E 037°35'1 1.9
2017-Dec-18 17:00N 44°27' E 037°34'1 1.4
2017-Dec-18 16:30N 44°26' E 037°34'1 1.4
2017-Dec-18 16:00N 44°26' E 037°33'1 1.1
2017-Dec-18 15:30N 44°25' E 037°33'1 1.0
2017-Dec-18 15:00N 44°25' E 037°32'0 0.9
2017-Dec-18 14:30N 44°24' E 037°32'1 1.0
2017-Dec-18 14:00N 44°24' E 037°32'1 1.0
2017-Dec-18 13:30N 44°23' E 037°32'1 1.1
2017-Dec-18 13:00N 44°23' E 037°32'1 1.0
2017-Dec-18 12:30N 44°22' E 037°32'1 1.1
2017-Dec-18 12:00N 44°22' E 037°33'1 1.1
2017-Dec-18 11:30N 44°21' E 037°33'1 1.3
2017-Dec-18 11:00N 44°21' E 037°33'1 1.2
2017-Dec-18 10:29N 44°20' E 037°34'1 1.1
2017-Dec-18 09:59N 44°20' E 037°35'1 1.1
2017-Dec-18 09:30N 44°20' E 037°35'1 1.0
2017-Dec-18 08:49N 44°19' E 037°36'0 1.0
2017-Dec-18 08:24N 44°19' E 037°37'0 1.0
2017-Dec-18 07:59N 44°19' E 037°37'0 0.7
2017-Dec-18 07:30N 44°20' E 037°38'2 4.2
2017-Dec-18 07:00N 44°20' E 037°35'510.9
2017-Dec-18 06:30N 44°21' E 037°27'611.3
2017-Dec-18 06:00N 44°23' E 037°20'611.4
2017-Dec-18 05:30N 44°26' E 037°13'2 2.5
2017-Dec-18 04:51N 44°26' E 037°10'1 1.3
2017-Dec-18 04:22N 44°25' E 037°10'1 1.4
2017-Dec-18 03:23N 44°24' E 037°10'1 1.5
2017-Dec-18 02:59N 44°23' E 037°10'1 1.5
2017-Dec-18 02:25N 44°22' E 037°10'1 1.6
2017-Dec-18 02:00N 44°22' E 037°09'1 1.6
2017-Dec-18 01:30N 44°21' E 037°09'1 1.5
2017-Dec-18 01:00N 44°20' E 037°09'1 1.4
2017-Dec-18 00:30N 44°20' E 037°09'2 1.3
2017-Dec-17 23:11N 44°18' E 037°09'0 1.2
2017-Dec-17 23:00N 44°18' E 037°09'1 1.2
2017-Dec-17 22:30N 44°17' E 037°09'1 1.1
2017-Dec-17 22:00N 44°17' E 037°09'1 1.2
2017-Dec-17 21:30N 44°16' E 037°09'1 1.3
2017-Dec-17 21:00N 44°15' E 037°09'1 1.2
2017-Dec-17 20:24N 44°15' E 037°08'1 1.3
2017-Dec-17 20:00N 44°14' E 037°08'1 1.3
2017-Dec-17 19:22N 44°13' E 037°08'1 2.2
2017-Dec-17 18:56N 44°13' E 037°06'4 8.4
2017-Dec-17 18:30N 44°12' E 037°02'811.5
2017-Dec-17 17:50N 44°10' E 036°51'29711.4
2017-Dec-16 15:49N 44°02' E 029°57'511.3
2017-Dec-16 15:23N 44°03' E 029°51'411.3
2017-Dec-16 14:59N 44°04' E 029°45'611.5
2017-Dec-16 14:30N 44°06' E 029°37'611.3
2017-Dec-16 14:00N 44°08' E 029°30'611.1
2017-Dec-16 13:30N 44°10' E 029°23'510.9
2017-Dec-16 13:00N 44°12' E 029°15'510.4
2017-Dec-16 12:30N 44°13' E 029°09'2 3.0
2017-Dec-16 12:00N 44°13' E 029°07'1 2.4
2017-Dec-16 11:30N 44°12' E 029°05'1 2.4
2017-Dec-16 11:00N 44°11' E 029°04'1 2.5
2017-Dec-16 10:30N 44°11' E 029°03'1 2.5
2017-Dec-16 10:00N 44°10' E 029°02'1 2.5
2017-Dec-16 09:30N 44°09' E 029°00'1 2.6
2017-Dec-16 09:00N 44°08' E 028°59'1 2.6
2017-Dec-16 08:30N 44°07' E 028°57'2 4.5
2017-Dec-16 08:00N 44°08' E 028°55'510.1
2017-Dec-16 07:30N 44°11' E 028°49'1 1.9
2017-Dec-16 07:00N 44°10' E 028°49'0 0.1
2017-Dec-16 06:28N 44°10' E 028°49'0 0.0
2017-Dec-16 05:58N 44°10' E 028°49'0 0.2
2017-Dec-16 05:28N 44°10' E 028°49'0 0.2
2017-Dec-16 04:58N 44°10' E 028°49'0 0.0
2017-Dec-16 04:28N 44°10' E 028°49'0 0.2
2017-Dec-16 03:58N 44°10' E 028°49'0 0.1
2017-Dec-16 03:28N 44°10' E 028°49'0 0.1
2017-Dec-16 02:58N 44°10' E 028°49'0 0.2
2017-Dec-16 02:28N 44°10' E 028°49'0 0.1
2017-Dec-16 01:58N 44°10' E 028°49'0 0.2
2017-Dec-16 01:28N 44°10' E 028°49'0 0.1
2017-Dec-16 00:58N 44°10' E 028°49'0 0.2
2017-Dec-16 00:28N 44°10' E 028°49'0 0.1
2017-Dec-15 23:58N 44°10' E 028°49'0 0.1
2017-Dec-15 23:28N 44°10' E 028°49'0 0.1
2017-Dec-15 22:55N 44°10' E 028°49'0 0.0
2017-Dec-15 22:28N 44°10' E 028°49'0 0.1
2017-Dec-15 21:58N 44°10' E 028°49'0 0.0
2017-Dec-15 21:28N 44°10' E 028°49'0 0.1
2017-Dec-15 20:58N 44°10' E 028°49'0 0.0
2017-Dec-15 20:28N 44°10' E 028°49'0 0.0
2017-Dec-15 19:58N 44°10' E 028°49'0 0.0
2017-Dec-15 19:28N 44°10' E 028°49'0 0.0
2017-Dec-15 18:58N 44°10' E 028°49'0 0.0
2017-Dec-15 18:28N 44°10' E 028°49'0 0.1
2017-Dec-15 17:58N 44°10' E 028°49'0 0.0
2017-Dec-15 17:28N 44°10' E 028°49'0 0.1
2017-Dec-15 16:58N 44°10' E 028°49'0 0.0
2017-Dec-15 16:28N 44°10' E 028°49'0 0.0
2017-Dec-15 15:58N 44°10' E 028°49'0 0.1
2017-Dec-15 15:28N 44°10' E 028°49'0 0.0
2017-Dec-15 14:58N 44°10' E 028°49'0 0.0
2017-Dec-15 14:28N 44°10' E 028°49'0 0.0
2017-Dec-15 13:58N 44°10' E 028°49'0 0.0
2017-Dec-15 13:28N 44°10' E 028°49'0 0.0
2017-Dec-15 12:58N 44°10' E 028°49'0 0.0
2017-Dec-15 12:28N 44°10' E 028°49'0 0.0
2017-Dec-15 11:58N 44°10' E 028°49'0 0.0
2017-Dec-15 11:28N 44°10' E 028°49'0 0.0
2017-Dec-15 10:58N 44°10' E 028°49'0 0.0
2017-Dec-15 10:28N 44°10' E 028°49'0 0.1
2017-Dec-15 09:58N 44°10' E 028°49'0 0.0
2017-Dec-15 09:28N 44°10' E 028°49'0 0.0
2017-Dec-15 08:58N 44°10' E 028°49'0 0.0
2017-Dec-15 08:28N 44°10' E 028°49'0 0.0
2017-Dec-15 07:58N 44°10' E 028°49'0 0.0
2017-Dec-15 07:28N 44°10' E 028°49'0 0.0
2017-Dec-15 06:58N 44°10' E 028°49'0 0.0
2017-Dec-15 06:28N 44°10' E 028°49'0 0.0
2017-Dec-15 05:58N 44°10' E 028°49'0 0.0
2017-Dec-15 05:28N 44°10' E 028°49'0 0.0
2017-Dec-15 04:58N 44°10' E 028°49'0 0.0
2017-Dec-15 04:28N 44°10' E 028°49'0 0.1
2017-Dec-15 03:58N 44°10' E 028°49'0 0.0
2017-Dec-15 02:28N 44°10' E 028°49'0 0.0
2017-Dec-15 00:58N 44°10' E 028°49'0 0.0
2017-Dec-15 00:28N 44°10' E 028°49'0 0.0
2017-Dec-14 18:31N 44°10' E 028°49'0 0.0
2017-Dec-14 17:58N 44°10' E 028°49'0 0.0
2017-Dec-14 17:28N 44°10' E 028°49'0 0.0
2017-Dec-14 16:58N 44°10' E 028°49'0 0.0
2017-Dec-14 16:28N 44°10' E 028°49'0 0.1
2017-Dec-14 15:58N 44°10' E 028°49'0 0.0
2017-Dec-14 14:58N 44°10' E 028°49'0 0.1
2017-Dec-14 14:28N 44°10' E 028°49'0 0.1
2017-Dec-14 13:58N 44°10' E 028°49'0 0.1
2017-Dec-14 13:28N 44°10' E 028°49'0 0.1
2017-Dec-14 12:58N 44°10' E 028°49'0 0.1
2017-Dec-14 12:28N 44°10' E 028°49'0 0.4
2017-Dec-14 11:58N 44°10' E 028°49'0 0.1
2017-Dec-14 11:28N 44°10' E 028°49'0 0.0
2017-Dec-14 10:55N 44°10' E 028°49'0 0.1
2017-Dec-14 10:28N 44°10' E 028°49'0 0.0
2017-Dec-14 09:58N 44°10' E 028°49'0 0.1
2017-Dec-14 09:28N 44°10' E 028°49'0 0.1
2017-Dec-14 08:58N 44°10' E 028°49'0 0.2
2017-Dec-14 08:28N 44°10' E 028°49'0 0.1
2017-Dec-14 07:58N 44°10' E 028°49'0 0.0
2017-Dec-14 07:28N 44°10' E 028°49'0 0.2
2017-Dec-14 06:58N 44°10' E 028°49'0 0.2
2017-Dec-14 06:28N 44°10' E 028°49'0 0.1
2017-Dec-14 05:58N 44°10' E 028°49'0 0.1
2017-Dec-14 05:28N 44°10' E 028°49'0 0.0
2017-Dec-14 04:58N 44°10' E 028°49'0 0.1
2017-Dec-14 04:28N 44°10' E 028°49'0 0.0
2017-Dec-14 03:58N 44°10' E 028°49'0 0.0
2017-Dec-14 03:28N 44°10' E 028°49'0 0.1
2017-Dec-14 02:58N 44°10' E 028°49'0 0.1
2017-Dec-14 02:28N 44°10' E 028°49'0 0.0
2017-Dec-14 01:58N 44°10' E 028°49'0 0.0
2017-Dec-14 01:28N 44°10' E 028°49'0 0.1
2017-Dec-14 00:58N 44°10' E 028°49'0 0.0
2017-Dec-14 00:28N 44°10' E 028°49'0 0.2
2017-Dec-14 00:00N 44°10' E 028°49'0 0.2
2017-Dec-13 23:30N 44°10' E 028°49'0 0.0
2017-Dec-13 23:00N 44°10' E 028°49'0 0.0
2017-Dec-13 22:30N 44°10' E 028°49'0 0.0
2017-Dec-13 22:00N 44°10' E 028°49'0 0.0
2017-Dec-13 21:30N 44°10' E 028°49'0 0.0
2017-Dec-13 21:00N 44°10' E 028°49'0 0.0
2017-Dec-13 20:30N 44°10' E 028°49'0 0.1
2017-Dec-13 20:00N 44°10' E 028°49'0 0.0
2017-Dec-13 19:30N 44°10' E 028°49'0 0.0
2017-Dec-13 19:00N 44°10' E 028°49'0 0.0
2017-Dec-13 18:30N 44°10' E 028°49'0 0.0
2017-Dec-13 18:00N 44°10' E 028°49'0 0.0
2017-Dec-13 17:30N 44°10' E 028°49'0 0.0
2017-Dec-13 17:00N 44°10' E 028°49'0 0.0
2017-Dec-13 16:30N 44°10' E 028°49'0 0.0
2017-Dec-13 16:00N 44°10' E 028°49'0 0.0
2017-Dec-13 15:30N 44°10' E 028°49'0 0.0
2017-Dec-13 15:00N 44°10' E 028°49'0 0.0
2017-Dec-13 14:30N 44°10' E 028°49'0 0.0
2017-Dec-13 13:57N 44°10' E 028°49'0 0.0
2017-Dec-13 13:30N 44°10' E 028°49'0 0.0
2017-Dec-13 13:00N 44°10' E 028°49'0 0.1
2017-Dec-13 12:30N 44°10' E 028°49'0 0.0
2017-Dec-13 12:00N 44°10' E 028°49'0 0.0
2017-Dec-13 11:30N 44°10' E 028°49'0 0.0
2017-Dec-13 11:00N 44°10' E 028°49'0 0.0
2017-Dec-13 10:30N 44°10' E 028°49'0 0.0
2017-Dec-13 10:00N 44°10' E 028°49'0 0.0
2017-Dec-13 09:30N 44°10' E 028°49'0 0.0
2017-Dec-13 09:00N 44°10' E 028°49'0 0.0
2017-Dec-13 08:30N 44°10' E 028°49'0 0.0
2017-Dec-13 08:00N 44°10' E 028°49'0 0.0
2017-Dec-13 07:30N 44°10' E 028°49'0 0.0
2017-Dec-13 07:00N 44°10' E 028°49'0 0.0
2017-Dec-13 06:30N 44°10' E 028°49'0 0.0
2017-Dec-13 06:00N 44°10' E 028°49'0 0.0
2017-Dec-13 05:30N 44°10' E 028°49'0 0.0
2017-Dec-13 05:00N 44°10' E 028°49'0 0.0
2017-Dec-13 04:30N 44°10' E 028°49'0 0.0
2017-Dec-13 04:00N 44°10' E 028°49'0 0.0
2017-Dec-13 03:30N 44°10' E 028°49'0 0.0
2017-Dec-13 03:00N 44°10' E 028°49'0 0.0
2017-Dec-13 02:30N 44°10' E 028°49'0 0.0
2017-Dec-13 02:00N 44°10' E 028°49'0 0.0
2017-Dec-13 01:30N 44°10' E 028°49'0 0.1
2017-Dec-13 01:00N 44°10' E 028°49'0 0.1
2017-Dec-13 00:30N 44°10' E 028°49'0 0.1
2017-Dec-13 00:00N 44°10' E 028°49'0 0.0
2017-Dec-12 23:30N 44°10' E 028°49'0 0.0
2017-Dec-12 23:00N 44°10' E 028°49'0 0.0
2017-Dec-12 22:30N 44°10' E 028°49'0 0.0
2017-Dec-12 22:00N 44°10' E 028°49'0 0.0
2017-Dec-12 21:30N 44°10' E 028°49'0 0.0
2017-Dec-12 21:00N 44°10' E 028°49'0 0.0
2017-Dec-12 20:30N 44°10' E 028°49'0 0.0
2017-Dec-12 20:00N 44°10' E 028°49'0 0.0
2017-Dec-12 19:27N 44°10' E 028°49'0 0.0
2017-Dec-12 19:00N 44°10' E 028°49'0 0.0
2017-Dec-12 18:30N 44°10' E 028°49'0 0.0
2017-Dec-12 18:00N 44°10' E 028°49'0 0.0
2017-Dec-12 17:30N 44°10' E 028°49'0 0.1
2017-Dec-12 17:00N 44°10' E 028°49'0 0.0
2017-Dec-12 16:30N 44°10' E 028°49'0 0.0
2017-Dec-12 16:00N 44°10' E 028°49'0 0.0
2017-Dec-12 15:30N 44°10' E 028°49'0 0.0
2017-Dec-12 15:00N 44°10' E 028°49'0 0.0
2017-Dec-12 14:30N 44°10' E 028°49'0 0.1
2017-Dec-12 14:00N 44°10' E 028°49'0 0.0
2017-Dec-12 13:30N 44°10' E 028°49'0 0.0
2017-Dec-12 13:00N 44°10' E 028°49'0 0.0
2017-Dec-12 12:30N 44°10' E 028°49'0 0.0
2017-Dec-12 12:00N 44°10' E 028°49'0 0.1
2017-Dec-12 11:30N 44°10' E 028°49'0 0.0
2017-Dec-12 11:00N 44°10' E 028°49'0 0.1
2017-Dec-12 10:30N 44°10' E 028°49'0 0.1
2017-Dec-12 10:00N 44°10' E 028°49'0 0.0
2017-Dec-12 09:27N 44°10' E 028°49'0 0.0
2017-Dec-12 09:00N 44°10' E 028°49'0 0.0
2017-Dec-12 08:30N 44°10' E 028°49'0 0.0
2017-Dec-12 08:00N 44°10' E 028°49'0 0.0
2017-Dec-12 07:30N 44°10' E 028°49'0 0.0
2017-Dec-12 07:00N 44°10' E 028°49'0 0.0
2017-Dec-12 06:30N 44°10' E 028°49'0 0.0
2017-Dec-12 06:00N 44°10' E 028°49'0 0.0
2017-Dec-12 05:30N 44°10' E 028°49'0 0.0
2017-Dec-12 05:00N 44°10' E 028°49'0 0.0
2017-Dec-12 04:30N 44°10' E 028°49'0 0.0
2017-Dec-12 04:00N 44°10' E 028°49'0 0.0
2017-Dec-12 03:30N 44°10' E 028°49'0 0.0
2017-Dec-12 03:00N 44°10' E 028°49'0 0.0
2017-Dec-12 02:30N 44°10' E 028°49'0 0.0
2017-Dec-12 02:00N 44°10' E 028°49'0 0.0
2017-Dec-12 01:30N 44°10' E 028°49'0 0.1
2017-Dec-12 01:00N 44°10' E 028°49'0 0.1
2017-Dec-12 00:30N 44°10' E 028°49'0 0.1
2017-Dec-12 00:00N 44°10' E 028°49'0 0.0
2017-Dec-11 23:30N 44°10' E 028°49'0 0.0
2017-Dec-11 23:00N 44°10' E 028°49'0 0.1
2017-Dec-11 22:30N 44°10' E 028°49'0 0.0
2017-Dec-11 22:00N 44°10' E 028°49'0 0.1
2017-Dec-11 21:30N 44°10' E 028°49'0 0.0
2017-Dec-11 21:00N 44°10' E 028°49'0 0.0
2017-Dec-11 20:30N 44°10' E 028°49'0 0.0
2017-Dec-11 20:00N 44°10' E 028°49'0 0.0
2017-Dec-11 19:30N 44°10' E 028°49'0 0.0
2017-Dec-11 19:00N 44°10' E 028°49'0 0.0
2017-Dec-11 18:30N 44°10' E 028°49'0 0.0
2017-Dec-11 18:00N 44°10' E 028°49'0 0.0
2017-Dec-11 17:30N 44°10' E 028°49'0 0.0
2017-Dec-11 17:00N 44°10' E 028°49'0 0.0
2017-Dec-11 16:30N 44°10' E 028°49'0 0.0
2017-Dec-11 16:00N 44°10' E 028°49'0 0.0
2017-Dec-11 15:30N 44°10' E 028°49'0 0.0
2017-Dec-11 15:00N 44°10' E 028°49'0 0.0
2017-Dec-11 14:30N 44°10' E 028°49'0 0.1
2017-Dec-11 14:00N 44°10' E 028°49'0 0.0
2017-Dec-11 13:30N 44°10' E 028°49'0 0.0
2017-Dec-11 13:00N 44°10' E 028°49'0 1.0
2017-Dec-11 12:31N 44°11' E 028°49'3 5.9
2017-Dec-11 12:00N 44°12' E 028°53'5 9.0
2017-Dec-11 11:30N 44°14' E 028°59'1 1.3
2017-Dec-11 11:01N 44°14' E 028°58'1 1.5
2017-Dec-11 10:30N 44°13' E 028°57'1 1.5
2017-Dec-11 10:01N 44°13' E 028°56'1 1.5
2017-Dec-11 09:30N 44°13' E 028°55'1 1.6
2017-Dec-11 09:01N 44°12' E 028°54'1 1.6
2017-Dec-11 08:30N 44°12' E 028°54'1 1.6
2017-Dec-11 08:00N 44°11' E 028°53'1 1.9
2017-Dec-11 07:30N 44°11' E 028°52'2 4.7
2017-Dec-11 07:01N 44°09' E 028°54'4 7.0
2017-Dec-11 06:30N 44°08' E 028°59'3 7.0
2017-Dec-11 06:01N 44°07' E 029°04'3 6.9
2017-Dec-11 05:30N 44°06' E 029°08'3 6.8
2017-Dec-11 05:00N 44°05' E 029°13'3 6.7
2017-Dec-11 04:31N 44°04' E 029°17'3 6.8
2017-Dec-11 04:00N 44°02' E 029°21'4 7.1
2017-Dec-11 03:30N 44°00' E 029°25'4 8.4
2017-Dec-11 03:01N 43°58' E 029°30'1 1.7
2017-Dec-11 02:20N 43°57' E 029°30'1 2.1
2017-Dec-11 01:58N 43°57' E 029°29'1 2.1
2017-Dec-11 01:31N 43°57' E 029°28'1 2.0
2017-Dec-11 01:00N 43°57' E 029°27'1 1.9
2017-Dec-11 00:30N 43°57' E 029°25'1 1.8
2017-Dec-11 00:01N 43°57' E 029°24'1 1.8
2017-Dec-10 23:30N 43°57' E 029°23'1 1.8
2017-Dec-10 23:01N 43°57' E 029°21'1 1.6
2017-Dec-10 22:30N 43°57' E 029°20'1 1.7
2017-Dec-10 22:01N 43°57' E 029°19'1 1.8
2017-Dec-10 21:31N 43°58' E 029°18'1 2.0
2017-Dec-10 21:01N 43°58' E 029°17'1 1.9
2017-Dec-10 20:31N 43°58' E 029°15'1 1.8
2017-Dec-10 20:01N 43°59' E 029°14'1 1.7
2017-Dec-10 19:31N 43°59' E 029°13'1 1.7
2017-Dec-10 19:01N 43°59' E 029°12'1 1.7
2017-Dec-10 18:31N 43°59' E 029°11'1 1.8
2017-Dec-10 18:00N 43°60' E 029°10'1 1.7
2017-Dec-10 17:30N 44°00' E 029°09'1 1.5
2017-Dec-10 17:00N 44°00' E 029°08'1 1.4
2017-Dec-10 16:31N 44°01' E 029°07'1 1.0
2017-Dec-10 16:00N 44°01' E 029°06'1 1.2
2017-Dec-10 15:31N 44°02' E 029°06'1 1.2
2017-Dec-10 15:00N 44°02' E 029°06'1 1.4
2017-Dec-10 14:31N 44°03' E 029°05'1 1.4
2017-Dec-10 14:00N 44°03' E 029°04'1 1.5
2017-Dec-10 13:31N 44°04' E 029°03'1 1.6
2017-Dec-10 13:01N 44°04' E 029°03'1 1.7
2017-Dec-10 12:30N 44°05' E 029°02'1 1.7
2017-Dec-10 12:00N 44°05' E 029°01'1 1.7
2017-Dec-10 11:31N 44°06' E 028°60'1 1.9
2017-Dec-10 11:01N 44°07' E 028°59'1 2.2
2017-Dec-10 10:30N 44°07' E 028°58'1 2.3
2017-Dec-10 10:01N 44°08' E 028°57'1 2.3
2017-Dec-10 09:30N 44°09' E 028°56'1 2.1
2017-Dec-10 09:00N 44°10' E 028°55'1 2.2
2017-Dec-10 08:31N 44°10' E 028°53'1 2.0
2017-Dec-10 08:01N 44°11' E 028°52'1 2.1
2017-Dec-10 07:31N 44°12' E 028°51'1 2.1
2017-Dec-10 07:01N 44°11' E 028°50'1 2.3
2017-Dec-10 06:31N 44°10' E 028°49'0 0.3
2017-Dec-10 05:58N 44°10' E 028°49'0 0.1
2017-Dec-10 05:28N 44°10' E 028°49'0 0.2
2017-Dec-10 04:58N 44°10' E 028°49'0 0.1
2017-Dec-10 04:28N 44°10' E 028°49'0 0.2
2017-Dec-10 03:58N 44°10' E 028°49'0 0.2
2017-Dec-10 03:28N 44°10' E 028°49'0 0.0
2017-Dec-10 02:58N 44°10' E 028°49'0 0.1
2017-Dec-10 02:28N 44°10' E 028°49'0 0.1
2017-Dec-10 01:58N 44°10' E 028°49'0 0.1
2017-Dec-10 01:28N 44°10' E 028°49'0 0.2
2017-Dec-10 00:58N 44°10' E 028°49'0 0.0
2017-Dec-10 00:28N 44°10' E 028°49'0 0.2
2017-Dec-09 23:58N 44°10' E 028°49'0 0.2
2017-Dec-09 23:28N 44°10' E 028°49'0 0.0
2017-Dec-09 22:58N 44°10' E 028°49'0 0.2
2017-Dec-09 22:28N 44°10' E 028°49'0 0.1
2017-Dec-09 21:58N 44°10' E 028°49'0 0.1
2017-Dec-09 21:28N 44°10' E 028°49'0 0.1
2017-Dec-09 20:58N 44°10' E 028°49'0 0.1
2017-Dec-09 20:28N 44°10' E 028°49'0 0.0
2017-Dec-09 19:58N 44°10' E 028°49'0 0.1
2017-Dec-09 19:28N 44°10' E 028°49'0 0.1
2017-Dec-09 18:58N 44°10' E 028°49'0 0.1
2017-Dec-09 18:28N 44°10' E 028°49'0 0.2
2017-Dec-09 17:58N 44°10' E 028°49'0 0.0
2017-Dec-09 17:28N 44°10' E 028°49'0 0.1
2017-Dec-09 16:58N 44°10' E 028°49'0 0.1
2017-Dec-09 16:28N 44°10' E 028°49'0 0.1
2017-Dec-09 15:58N 44°10' E 028°49'0 0.2
2017-Dec-09 15:28N 44°10' E 028°49'0 0.0
2017-Dec-09 14:58N 44°10' E 028°49'0 0.1
2017-Dec-09 14:28N 44°10' E 028°49'0 0.0
2017-Dec-09 13:58N 44°10' E 028°49'0 0.0
2017-Dec-09 13:28N 44°10' E 028°49'0 0.0
2017-Dec-09 12:58N 44°10' E 028°49'0 0.1
2017-Dec-09 12:28N 44°10' E 028°49'0 0.0
2017-Dec-09 11:58N 44°10' E 028°49'0 0.1
2017-Dec-09 11:28N 44°10' E 028°49'0 0.0
2017-Dec-09 10:58N 44°10' E 028°49'0 0.0
2017-Dec-09 10:28N 44°10' E 028°49'0 0.0
2017-Dec-09 09:58N 44°10' E 028°49'0 0.0
2017-Dec-09 09:28N 44°10' E 028°49'0 0.0
2017-Dec-09 08:58N 44°10' E 028°49'0 0.0
2017-Dec-09 08:28N 44°10' E 028°49'0 0.0
2017-Dec-09 07:58N 44°10' E 028°49'0 0.0
2017-Dec-09 07:28N 44°10' E 028°49'0 0.0
2017-Dec-09 06:58N 44°10' E 028°49'0 0.0
2017-Dec-09 06:28N 44°10' E 028°49'0 0.0
2017-Dec-09 05:58N 44°10' E 028°49'0 0.0
2017-Dec-09 05:28N 44°10' E 028°49'0 0.0
2017-Dec-09 04:58N 44°10' E 028°49'0 0.0
2017-Dec-09 04:28N 44°10' E 028°49'0 0.0
2017-Dec-09 03:58N 44°10' E 028°49'0 0.1
2017-Dec-09 03:28N 44°10' E 028°49'0 0.0
2017-Dec-09 02:58N 44°10' E 028°49'0 0.1
2017-Dec-09 02:28N 44°10' E 028°49'0 0.1
2017-Dec-09 01:58N 44°10' E 028°49'0 0.0
2017-Dec-09 01:28N 44°10' E 028°49'0 0.0
2017-Dec-09 00:58N 44°10' E 028°49'0 0.0
2017-Dec-09 00:28N 44°10' E 028°49'0 0.0
2017-Dec-08 23:58N 44°10' E 028°49'0 0.0
2017-Dec-08 23:28N 44°10' E 028°49'0 0.1
2017-Dec-08 22:58N 44°10' E 028°49'0 0.1
2017-Dec-08 22:28N 44°10' E 028°49'0 0.0
2017-Dec-08 21:58N 44°10' E 028°49'0 0.1
2017-Dec-08 21:28N 44°10' E 028°49'0 0.0
2017-Dec-08 20:58N 44°10' E 028°49'0 0.0
2017-Dec-08 20:28N 44°10' E 028°49'0 0.0
2017-Dec-08 19:58N 44°10' E 028°49'0 0.0
2017-Dec-08 19:28N 44°10' E 028°49'0 0.0
2017-Dec-08 18:58N 44°10' E 028°49'  
Track history (hours):
 
Tides and Currents Weather Stations Pressure Air Temp Water Temp Dewpoint Dewpoint Depression Visibility Wind Speed Wind Dir Waves Ship Positions

Dynasty

Last reported at 2017-Dec-18 18:30 UTC. Time now 2017-Dec-18 18:41 UTC.
Position N 44°19' E 037°43'.

Length 241 m; draft 8 m.

Type: Tanker. MMSI: 636014400.

Date/timePositionNaut miles runAvg speedWind from/ knotsBaromVisibWave heightAir tempDewpointWater temp
2017-Dec-18 18:30N 44°19' E 037°43'510.9
2017-Dec-18 18:00N 44°23' E 037°37'5 9.3
2017-Dec-18 17:30N 44°28' E 037°35'1 1.9
2017-Dec-18 17:00N 44°27' E 037°34'1 1.4
2017-Dec-18 16:30N 44°26' E 037°34'1 1.4
2017-Dec-18 16:00N 44°26' E 037°33'1 1.1
2017-Dec-18 15:30N 44°25' E 037°33'1 1.0
2017-Dec-18 15:00N 44°25' E 037°32'0 0.9
2017-Dec-18 14:30N 44°24' E 037°32'1 1.0
2017-Dec-18 14:00N 44°24' E 037°32'1 1.0
2017-Dec-18 13:30N 44°23' E 037°32'1 1.1
2017-Dec-18 13:00N 44°23' E 037°32'1 1.0
2017-Dec-18 12:30N 44°22' E 037°32'1 1.1
2017-Dec-18 12:00N 44°22' E 037°33'1 1.1
2017-Dec-18 11:30N 44°21' E 037°33'1 1.3
2017-Dec-18 11:00N 44°21' E 037°33'1 1.2
2017-Dec-18 10:29N 44°20' E 037°34'1 1.1
2017-Dec-18 09:59N 44°20' E 037°35'1 1.1
2017-Dec-18 09:30N 44°20' E 037°35'1 1.0
2017-Dec-18 08:49N 44°19' E 037°36'0 1.0
2017-Dec-18 08:24N 44°19' E 037°37'0 1.0
2017-Dec-18 07:59N 44°19' E 037°37'0 0.7
2017-Dec-18 07:30N 44°20' E 037°38'2 4.2
2017-Dec-18 07:00N 44°20' E 037°35'510.9
2017-Dec-18 06:30N 44°21' E 037°27'611.3
2017-Dec-18 06:00N 44°23' E 037°20'611.4
2017-Dec-18 05:30N 44°26' E 037°13'2 2.5
2017-Dec-18 04:51N 44°26' E 037°10'1 1.3
2017-Dec-18 04:22N 44°25' E 037°10'1 1.4
2017-Dec-18 03:23N 44°24' E 037°10'1 1.5
2017-Dec-18 02:59N 44°23' E 037°10'1 1.5
2017-Dec-18 02:25N 44°22' E 037°10'1 1.6
2017-Dec-18 02:00N 44°22' E 037°09'1 1.6
2017-Dec-18 01:30N 44°21' E 037°09'1 1.5
2017-Dec-18 01:00N 44°20' E 037°09'1 1.4
2017-Dec-18 00:30N 44°20' E 037°09'2 1.3
2017-Dec-17 23:11N 44°18' E 037°09'0 1.2
2017-Dec-17 23:00N 44°18' E 037°09'1 1.2
2017-Dec-17 22:30N 44°17' E 037°09'1 1.1
2017-Dec-17 22:00N 44°17' E 037°09'1 1.2
2017-Dec-17 21:30N 44°16' E 037°09'1 1.3
2017-Dec-17 21:00N 44°15' E 037°09'1 1.2
2017-Dec-17 20:24N 44°15' E 037°08'1 1.3
2017-Dec-17 20:00N 44°14' E 037°08'1 1.3
2017-Dec-17 19:22N 44°13' E 037°08'1 2.2
2017-Dec-17 18:56N 44°13' E 037°06'4 8.4
2017-Dec-17 18:30N 44°12' E 037°02'811.5
2017-Dec-17 17:50N 44°10' E 036°51'29711.4
2017-Dec-16 15:49N 44°02' E 029°57'511.3
2017-Dec-16 15:23N 44°03' E 029°51'411.3
2017-Dec-16 14:59N 44°04' E 029°45'611.5
2017-Dec-16 14:30N 44°06' E 029°37'611.3
2017-Dec-16 14:00N 44°08' E 029°30'611.1
2017-Dec-16 13:30N 44°10' E 029°23'510.9
2017-Dec-16 13:00N 44°12' E 029°15'510.4
2017-Dec-16 12:30N 44°13' E 029°09'2 3.0
2017-Dec-16 12:00N 44°13' E 029°07'1 2.4
2017-Dec-16 11:30N 44°12' E 029°05'1 2.4
2017-Dec-16 11:00N 44°11' E 029°04'1 2.5
2017-Dec-16 10:30N 44°11' E 029°03'1 2.5
2017-Dec-16 10:00N 44°10' E 029°02'1 2.5
2017-Dec-16 09:30N 44°09' E 029°00'1 2.6
2017-Dec-16 09:00N 44°08' E 028°59'1 2.6
2017-Dec-16 08:30N 44°07' E 028°57'2 4.5
2017-Dec-16 08:00N 44°08' E 028°55'510.1
2017-Dec-16 07:30N 44°11' E 028°49'1 1.9
2017-Dec-16 07:00N 44°10' E 028°49'0 0.1
2017-Dec-16 06:28N 44°10' E 028°49'0 0.0
2017-Dec-16 05:58N 44°10' E 028°49'0 0.2
2017-Dec-16 05:28N 44°10' E 028°49'0 0.2
2017-Dec-16 04:58N 44°10' E 028°49'0 0.0
2017-Dec-16 04:28N 44°10' E 028°49'0 0.2
2017-Dec-16 03:58N 44°10' E 028°49'0 0.1
2017-Dec-16 03:28N 44°10' E 028°49'0 0.1
2017-Dec-16 02:58N 44°10' E 028°49'0 0.2
2017-Dec-16 02:28N 44°10' E 028°49'0 0.1
2017-Dec-16 01:58N 44°10' E 028°49'0 0.2
2017-Dec-16 01:28N 44°10' E 028°49'0 0.1
2017-Dec-16 00:58N 44°10' E 028°49'0 0.2
2017-Dec-16 00:28N 44°10' E 028°49'0 0.1
2017-Dec-15 23:58N 44°10' E 028°49'0 0.1
2017-Dec-15 23:28N 44°10' E 028°49'0 0.1
2017-Dec-15 22:55N 44°10' E 028°49'0 0.0
2017-Dec-15 22:28N 44°10' E 028°49'0 0.1
2017-Dec-15 21:58N 44°10' E 028°49'0 0.0
2017-Dec-15 21:28N 44°10' E 028°49'0 0.1
2017-Dec-15 20:58N 44°10' E 028°49'0 0.0
2017-Dec-15 20:28N 44°10' E 028°49'0 0.0
2017-Dec-15 19:58N 44°10' E 028°49'0 0.0
2017-Dec-15 19:28N 44°10' E 028°49'0 0.0
2017-Dec-15 18:58N 44°10' E 028°49'0 0.0
2017-Dec-15 18:28N 44°10' E 028°49'0 0.1
2017-Dec-15 17:58N 44°10' E 028°49'0 0.0
2017-Dec-15 17:28N 44°10' E 028°49'0 0.1
2017-Dec-15 16:58N 44°10' E 028°49'0 0.0
2017-Dec-15 16:28N 44°10' E 028°49'0 0.0
2017-Dec-15 15:58N 44°10' E 028°49'0 0.1
2017-Dec-15 15:28N 44°10' E 028°49'0 0.0
2017-Dec-15 14:58N 44°10' E 028°49'0 0.0
2017-Dec-15 14:28N 44°10' E 028°49'0 0.0
2017-Dec-15 13:58N 44°10' E 028°49'0 0.0
2017-Dec-15 13:28N 44°10' E 028°49'0 0.0
2017-Dec-15 12:58N 44°10' E 028°49'0 0.0
2017-Dec-15 12:28N 44°10' E 028°49'0 0.0
2017-Dec-15 11:58N 44°10' E 028°49'0 0.0
2017-Dec-15 11:28N 44°10' E 028°49'0 0.0
2017-Dec-15 10:58N 44°10' E 028°49'0 0.0
2017-Dec-15 10:28N 44°10' E 028°49'0 0.1
2017-Dec-15 09:58N 44°10' E 028°49'0 0.0
2017-Dec-15 09:28N 44°10' E 028°49'0 0.0
2017-Dec-15 08:58N 44°10' E 028°49'0 0.0
2017-Dec-15 08:28N 44°10' E 028°49'0 0.0
2017-Dec-15 07:58N 44°10' E 028°49'0 0.0
2017-Dec-15 07:28N 44°10' E 028°49'0 0.0
2017-Dec-15 06:58N 44°10' E 028°49'0 0.0
2017-Dec-15 06:28N 44°10' E 028°49'0 0.0
2017-Dec-15 05:58N 44°10' E 028°49'0 0.0
2017-Dec-15 05:28N 44°10' E 028°49'0 0.0
2017-Dec-15 04:58N 44°10' E 028°49'0 0.0
2017-Dec-15 04:28N 44°10' E 028°49'0 0.1
2017-Dec-15 03:58N 44°10' E 028°49'0 0.0
2017-Dec-15 02:28N 44°10' E 028°49'0 0.0
2017-Dec-15 00:58N 44°10' E 028°49'0 0.0
2017-Dec-15 00:28N 44°10' E 028°49'0 0.0
2017-Dec-14 18:31N 44°10' E 028°49'0 0.0
2017-Dec-14 17:58N 44°10' E 028°49'0 0.0
2017-Dec-14 17:28N 44°10' E 028°49'0 0.0
2017-Dec-14 16:58N 44°10' E 028°49'0 0.0
2017-Dec-14 16:28N 44°10' E 028°49'0 0.1
2017-Dec-14 15:58N 44°10' E 028°49'0 0.0
2017-Dec-14 14:58N 44°10' E 028°49'0 0.1
2017-Dec-14 14:28N 44°10' E 028°49'0 0.1
2017-Dec-14 13:58N 44°10' E 028°49'0 0.1
2017-Dec-14 13:28N 44°10' E 028°49'0 0.1
2017-Dec-14 12:58N 44°10' E 028°49'0 0.1
2017-Dec-14 12:28N 44°10' E 028°49'0 0.4
2017-Dec-14 11:58N 44°10' E 028°49'0 0.1
2017-Dec-14 11:28N 44°10' E 028°49'0 0.0
2017-Dec-14 10:55N 44°10' E 028°49'0 0.1
2017-Dec-14 10:28N 44°10' E 028°49'0 0.0
2017-Dec-14 09:58N 44°10' E 028°49'0 0.1
2017-Dec-14 09:28N 44°10' E 028°49'0 0.1
2017-Dec-14 08:58N 44°10' E 028°49'0 0.2
2017-Dec-14 08:28N 44°10' E 028°49'0 0.1
2017-Dec-14 07:58N 44°10' E 028°49'0 0.0
2017-Dec-14 07:28N 44°10' E 028°49'0 0.2
2017-Dec-14 06:58N 44°10' E 028°49'0 0.2
2017-Dec-14 06:28N 44°10' E 028°49'0 0.1
2017-Dec-14 05:58N 44°10' E 028°49'0 0.1
2017-Dec-14 05:28N 44°10' E 028°49'0 0.0
2017-Dec-14 04:58N 44°10' E 028°49'0 0.1
2017-Dec-14 04:28N 44°10' E 028°49'0 0.0
2017-Dec-14 03:58N 44°10' E 028°49'0 0.0
2017-Dec-14 03:28N 44°10' E 028°49'0 0.1
2017-Dec-14 02:58N 44°10' E 028°49'0 0.1
2017-Dec-14 02:28N 44°10' E 028°49'0 0.0
2017-Dec-14 01:58N 44°10' E 028°49'0 0.0
2017-Dec-14 01:28N 44°10' E 028°49'0 0.1
2017-Dec-14 00:58N 44°10' E 028°49'0 0.0
2017-Dec-14 00:28N 44°10' E 028°49'0 0.2
2017-Dec-14 00:00N 44°10' E 028°49'0 0.2
2017-Dec-13 23:30N 44°10' E 028°49'0 0.0
2017-Dec-13 23:00N 44°10' E 028°49'0 0.0
2017-Dec-13 22:30N 44°10' E 028°49'0 0.0
2017-Dec-13 22:00N 44°10' E 028°49'0 0.0
2017-Dec-13 21:30N 44°10' E 028°49'0 0.0
2017-Dec-13 21:00N 44°10' E 028°49'0 0.0
2017-Dec-13 20:30N 44°10' E 028°49'0 0.1
2017-Dec-13 20:00N 44°10' E 028°49'0 0.0
2017-Dec-13 19:30N 44°10' E 028°49'0 0.0
2017-Dec-13 19:00N 44°10' E 028°49'0 0.0
2017-Dec-13 18:30N 44°10' E 028°49'0 0.0
2017-Dec-13 18:00N 44°10' E 028°49'0 0.0
2017-Dec-13 17:30N 44°10' E 028°49'0 0.0
2017-Dec-13 17:00N 44°10' E 028°49'0 0.0
2017-Dec-13 16:30N 44°10' E 028°49'0 0.0
2017-Dec-13 16:00N 44°10' E 028°49'0 0.0
2017-Dec-13 15:30N 44°10' E 028°49'0 0.0
2017-Dec-13 15:00N 44°10' E 028°49'0 0.0
2017-Dec-13 14:30N 44°10' E 028°49'0 0.0
2017-Dec-13 13:57N 44°10' E 028°49'0 0.0
2017-Dec-13 13:30N 44°10' E 028°49'0 0.0
2017-Dec-13 13:00N 44°10' E 028°49'0 0.1
2017-Dec-13 12:30N 44°10' E 028°49'0 0.0
2017-Dec-13 12:00N 44°10' E 028°49'0 0.0
2017-Dec-13 11:30N 44°10' E 028°49'0 0.0
2017-Dec-13 11:00N 44°10' E 028°49'0 0.0
2017-Dec-13 10:30N 44°10' E 028°49'0 0.0
2017-Dec-13 10:00N 44°10' E 028°49'0 0.0
2017-Dec-13 09:30N 44°10' E 028°49'0 0.0
2017-Dec-13 09:00N 44°10' E 028°49'0 0.0
2017-Dec-13 08:30N 44°10' E 028°49'0 0.0
2017-Dec-13 08:00N 44°10' E 028°49'0 0.0
2017-Dec-13 07:30N 44°10' E 028°49'0 0.0
2017-Dec-13 07:00N 44°10' E 028°49'0 0.0
2017-Dec-13 06:30N 44°10' E 028°49'0 0.0
2017-Dec-13 06:00N 44°10' E 028°49'0 0.0
2017-Dec-13 05:30N 44°10' E 028°49'0 0.0
2017-Dec-13 05:00N 44°10' E 028°49'0 0.0
2017-Dec-13 04:30N 44°10' E 028°49'0 0.0
2017-Dec-13 04:00N 44°10' E 028°49'0 0.0
2017-Dec-13 03:30N 44°10' E 028°49'0 0.0
2017-Dec-13 03:00N 44°10' E 028°49'0 0.0
2017-Dec-13 02:30N 44°10' E 028°49'0 0.0
2017-Dec-13 02:00N 44°10' E 028°49'0 0.0
2017-Dec-13 01:30N 44°10' E 028°49'0 0.1
2017-Dec-13 01:00N 44°10' E 028°49'0 0.1
2017-Dec-13 00:30N 44°10' E 028°49'0 0.1
2017-Dec-13 00:00N 44°10' E 028°49'0 0.0
2017-Dec-12 23:30N 44°10' E 028°49'0 0.0
2017-Dec-12 23:00N 44°10' E 028°49'0 0.0
2017-Dec-12 22:30N 44°10' E 028°49'0 0.0
2017-Dec-12 22:00N 44°10' E 028°49'0 0.0
2017-Dec-12 21:30N 44°10' E 028°49'0 0.0
2017-Dec-12 21:00N 44°10' E 028°49'0 0.0
2017-Dec-12 20:30N 44°10' E 028°49'0 0.0
2017-Dec-12 20:00N 44°10' E 028°49'0 0.0
2017-Dec-12 19:27N 44°10' E 028°49'0 0.0
2017-Dec-12 19:00N 44°10' E 028°49'0 0.0
2017-Dec-12 18:30N 44°10' E 028°49'0 0.0
2017-Dec-12 18:00N 44°10' E 028°49'0 0.0
2017-Dec-12 17:30N 44°10' E 028°49'0 0.1
2017-Dec-12 17:00N 44°10' E 028°49'0 0.0
2017-Dec-12 16:30N 44°10' E 028°49'0 0.0
2017-Dec-12 16:00N 44°10' E 028°49'0 0.0
2017-Dec-12 15:30N 44°10' E 028°49'0 0.0
2017-Dec-12 15:00N 44°10' E 028°49'0 0.0
2017-Dec-12 14:30N 44°10' E 028°49'0 0.1
2017-Dec-12 14:00N 44°10' E 028°49'0 0.0
2017-Dec-12 13:30N 44°10' E 028°49'0 0.0
2017-Dec-12 13:00N 44°10' E 028°49'0 0.0
2017-Dec-12 12:30N 44°10' E 028°49'0 0.0
2017-Dec-12 12:00N 44°10' E 028°49'0 0.1
2017-Dec-12 11:30N 44°10' E 028°49'0 0.0
2017-Dec-12 11:00N 44°10' E 028°49'0 0.1
2017-Dec-12 10:30N 44°10' E 028°49'0 0.1
2017-Dec-12 10:00N 44°10' E 028°49'0 0.0
2017-Dec-12 09:27N 44°10' E 028°49'0 0.0
2017-Dec-12 09:00N 44°10' E 028°49'0 0.0
2017-Dec-12 08:30N 44°10' E 028°49'0 0.0
2017-Dec-12 08:00N 44°10' E 028°49'0 0.0
2017-Dec-12 07:30N 44°10' E 028°49'0 0.0
2017-Dec-12 07:00N 44°10' E 028°49'0 0.0
2017-Dec-12 06:30N 44°10' E 028°49'0 0.0
2017-Dec-12 06:00N 44°10' E 028°49'0 0.0
2017-Dec-12 05:30N 44°10' E 028°49'0 0.0
2017-Dec-12 05:00N 44°10' E 028°49'0 0.0
2017-Dec-12 04:30N 44°10' E 028°49'0 0.0
2017-Dec-12 04:00N 44°10' E 028°49'0 0.0
2017-Dec-12 03:30N 44°10' E 028°49'0 0.0
2017-Dec-12 03:00N 44°10' E 028°49'0 0.0
2017-Dec-12 02:30N 44°10' E 028°49'0 0.0
2017-Dec-12 02:00N 44°10' E 028°49'0 0.0
2017-Dec-12 01:30N 44°10' E 028°49'0 0.1
2017-Dec-12 01:00N 44°10' E 028°49'0 0.1
2017-Dec-12 00:30N 44°10' E 028°49'0 0.1
2017-Dec-12 00:00N 44°10' E 028°49'0 0.0
2017-Dec-11 23:30N 44°10' E 028°49'0 0.0
2017-Dec-11 23:00N 44°10' E 028°49'0 0.1
2017-Dec-11 22:30N 44°10' E 028°49'0 0.0
2017-Dec-11 22:00N 44°10' E 028°49'0 0.1
2017-Dec-11 21:30N 44°10' E 028°49'0 0.0
2017-Dec-11 21:00N 44°10' E 028°49'0 0.0
2017-Dec-11 20:30N 44°10' E 028°49'0 0.0
2017-Dec-11 20:00N 44°10' E 028°49'0 0.0
2017-Dec-11 19:30N 44°10' E 028°49'0 0.0
2017-Dec-11 19:00N 44°10' E 028°49'0 0.0
2017-Dec-11 18:30N 44°10' E 028°49'0 0.0
2017-Dec-11 18:00N 44°10' E 028°49'0 0.0
2017-Dec-11 17:30N 44°10' E 028°49'0 0.0
2017-Dec-11 17:00N 44°10' E 028°49'0 0.0
2017-Dec-11 16:30N 44°10' E 028°49'0 0.0
2017-Dec-11 16:00N 44°10' E 028°49'0 0.0
2017-Dec-11 15:30N 44°10' E 028°49'0 0.0
2017-Dec-11 15:00N 44°10' E 028°49'0 0.0
2017-Dec-11 14:30N 44°10' E 028°49'0 0.1
2017-Dec-11 14:00N 44°10' E 028°49'0 0.0
2017-Dec-11 13:30N 44°10' E 028°49'0 0.0
2017-Dec-11 13:00N 44°10' E 028°49'0 1.0
2017-Dec-11 12:31N 44°11' E 028°49'3 5.9
2017-Dec-11 12:00N 44°12' E 028°53'5 9.0
2017-Dec-11 11:30N 44°14' E 028°59'1 1.3
2017-Dec-11 11:01N 44°14' E 028°58'1 1.5
2017-Dec-11 10:30N 44°13' E 028°57'1 1.5
2017-Dec-11 10:01N 44°13' E 028°56'1 1.5
2017-Dec-11 09:30N 44°13' E 028°55'1 1.6
2017-Dec-11 09:01N 44°12' E 028°54'1 1.6
2017-Dec-11 08:30N 44°12' E 028°54'1 1.6
2017-Dec-11 08:00N 44°11' E 028°53'1 1.9
2017-Dec-11 07:30N 44°11' E 028°52'2 4.7
2017-Dec-11 07:01N 44°09' E 028°54'4 7.0
2017-Dec-11 06:30N 44°08' E 028°59'3 7.0
2017-Dec-11 06:01N 44°07' E 029°04'3 6.9
2017-Dec-11 05:30N 44°06' E 029°08'3 6.8
2017-Dec-11 05:00N 44°05' E 029°13'3 6.7
2017-Dec-11 04:31N 44°04' E 029°17'3 6.8
2017-Dec-11 04:00N 44°02' E 029°21'4 7.1
2017-Dec-11 03:30N 44°00' E 029°25'4 8.4
2017-Dec-11 03:01N 43°58' E 029°30'1 1.7
2017-Dec-11 02:20N 43°57' E 029°30'1 2.1
2017-Dec-11 01:58N 43°57' E 029°29'1 2.1
2017-Dec-11 01:31N 43°57' E 029°28'1 2.0
2017-Dec-11 01:00N 43°57' E 029°27'1 1.9
2017-Dec-11 00:30N 43°57' E 029°25'1 1.8
2017-Dec-11 00:01N 43°57' E 029°24'1 1.8
2017-Dec-10 23:30N 43°57' E 029°23'1 1.8
2017-Dec-10 23:01N 43°57' E 029°21'1 1.6
2017-Dec-10 22:30N 43°57' E 029°20'1 1.7
2017-Dec-10 22:01N 43°57' E 029°19'1 1.8
2017-Dec-10 21:31N 43°58' E 029°18'1 2.0
2017-Dec-10 21:01N 43°58' E 029°17'1 1.9
2017-Dec-10 20:31N 43°58' E 029°15'1 1.8
2017-Dec-10 20:01N 43°59' E 029°14'1 1.7
2017-Dec-10 19:31N 43°59' E 029°13'1 1.7
2017-Dec-10 19:01N 43°59' E 029°12'1 1.7
2017-Dec-10 18:31N 43°59' E 029°11'1 1.8
2017-Dec-10 18:00N 43°60' E 029°10'1 1.7
2017-Dec-10 17:30N 44°00' E 029°09'1 1.5
2017-Dec-10 17:00N 44°00' E 029°08'1 1.4
2017-Dec-10 16:31N 44°01' E 029°07'1 1.0
2017-Dec-10 16:00N 44°01' E 029°06'1 1.2
2017-Dec-10 15:31N 44°02' E 029°06'1 1.2
2017-Dec-10 15:00N 44°02' E 029°06'1 1.4
2017-Dec-10 14:31N 44°03' E 029°05'1 1.4
2017-Dec-10 14:00N 44°03' E 029°04'1 1.5
2017-Dec-10 13:31N 44°04' E 029°03'1 1.6
2017-Dec-10 13:01N 44°04' E 029°03'1 1.7
2017-Dec-10 12:30N 44°05' E 029°02'1 1.7
2017-Dec-10 12:00N 44°05' E 029°01'1 1.7
2017-Dec-10 11:31N 44°06' E 028°60'1 1.9
2017-Dec-10 11:01N 44°07' E 028°59'1 2.2
2017-Dec-10 10:30N 44°07' E 028°58'1 2.3
2017-Dec-10 10:01N 44°08' E 028°57'1 2.3
2017-Dec-10 09:30N 44°09' E 028°56'1 2.1
2017-Dec-10 09:00N 44°10' E 028°55'1 2.2
2017-Dec-10 08:31N 44°10' E 028°53'1 2.0
2017-Dec-10 08:01N 44°11' E 028°52'1 2.1
2017-Dec-10 07:31N 44°12' E 028°51'1 2.1
2017-Dec-10 07:01N 44°11' E 028°50'1 2.3
2017-Dec-10 06:31N 44°10' E 028°49'0 0.3
2017-Dec-10 05:58N 44°10' E 028°49'0 0.1
2017-Dec-10 05:28N 44°10' E 028°49'0 0.2
2017-Dec-10 04:58N 44°10' E 028°49'0 0.1
2017-Dec-10 04:28N 44°10' E 028°49'0 0.2
2017-Dec-10 03:58N 44°10' E 028°49'0 0.2
2017-Dec-10 03:28N 44°10' E 028°49'0 0.0
2017-Dec-10 02:58N 44°10' E 028°49'0 0.1
2017-Dec-10 02:28N 44°10' E 028°49'0 0.1
2017-Dec-10 01:58N 44°10' E 028°49'0 0.1
2017-Dec-10 01:28N 44°10' E 028°49'0 0.2
2017-Dec-10 00:58N 44°10' E 028°49'0 0.0
2017-Dec-10 00:28N 44°10' E 028°49'0 0.2
2017-Dec-09 23:58N 44°10' E 028°49'0 0.2
2017-Dec-09 23:28N 44°10' E 028°49'0 0.0
2017-Dec-09 22:58N 44°10' E 028°49'0 0.2
2017-Dec-09 22:28N 44°10' E 028°49'0 0.1
2017-Dec-09 21:58N 44°10' E 028°49'0 0.1
2017-Dec-09 21:28N 44°10' E 028°49'0 0.1
2017-Dec-09 20:58N 44°10' E 028°49'0 0.1
2017-Dec-09 20:28N 44°10' E 028°49'0 0.0
2017-Dec-09 19:58N 44°10' E 028°49'0 0.1
2017-Dec-09 19:28N 44°10' E 028°49'0 0.1
2017-Dec-09 18:58N 44°10' E 028°49'0 0.1
2017-Dec-09 18:28N 44°10' E 028°49'0 0.2
2017-Dec-09 17:58N 44°10' E 028°49'0 0.0
2017-Dec-09 17:28N 44°10' E 028°49'0 0.1
2017-Dec-09 16:58N 44°10' E 028°49'0 0.1
2017-Dec-09 16:28N 44°10' E 028°49'0 0.1
2017-Dec-09 15:58N 44°10' E 028°49'0 0.2
2017-Dec-09 15:28N 44°10' E 028°49'0 0.0
2017-Dec-09 14:58N 44°10' E 028°49'0 0.1
2017-Dec-09 14:28N 44°10' E 028°49'0 0.0
2017-Dec-09 13:58N 44°10' E 028°49'0 0.0
2017-Dec-09 13:28N 44°10' E 028°49'0 0.0
2017-Dec-09 12:58N 44°10' E 028°49'0 0.1
2017-Dec-09 12:28N 44°10' E 028°49'0 0.0
2017-Dec-09 11:58N 44°10' E 028°49'0 0.1
2017-Dec-09 11:28N 44°10' E 028°49'0 0.0
2017-Dec-09 10:58N 44°10' E 028°49'0 0.0
2017-Dec-09 10:28N 44°10' E 028°49'0 0.0
2017-Dec-09 09:58N 44°10' E 028°49'0 0.0
2017-Dec-09 09:28N 44°10' E 028°49'0 0.0
2017-Dec-09 08:58N 44°10' E 028°49'0 0.0
2017-Dec-09 08:28N 44°10' E 028°49'0 0.0
2017-Dec-09 07:58N 44°10' E 028°49'0 0.0
2017-Dec-09 07:28N 44°10' E 028°49'0 0.0
2017-Dec-09 06:58N 44°10' E 028°49'0 0.0
2017-Dec-09 06:28N 44°10' E 028°49'0 0.0
2017-Dec-09 05:58N 44°10' E 028°49'0 0.0
2017-Dec-09 05:28N 44°10' E 028°49'0 0.0
2017-Dec-09 04:58N 44°10' E 028°49'0 0.0
2017-Dec-09 04:28N 44°10' E 028°49'0 0.0
2017-Dec-09 03:58N 44°10' E 028°49'0 0.1
2017-Dec-09 03:28N 44°10' E 028°49'0 0.0
2017-Dec-09 02:58N 44°10' E 028°49'0 0.1
2017-Dec-09 02:28N 44°10' E 028°49'0 0.1
2017-Dec-09 01:58N 44°10' E 028°49'0 0.0
2017-Dec-09 01:28N 44°10' E 028°49'0 0.0
2017-Dec-09 00:58N 44°10' E 028°49'0 0.0
2017-Dec-09 00:28N 44°10' E 028°49'0 0.0
2017-Dec-08 23:58N 44°10' E 028°49'0 0.0
2017-Dec-08 23:28N 44°10' E 028°49'0 0.1
2017-Dec-08 22:58N 44°10' E 028°49'0 0.1
2017-Dec-08 22:28N 44°10' E 028°49'0 0.0
2017-Dec-08 21:58N 44°10' E 028°49'0 0.1
2017-Dec-08 21:28N 44°10' E 028°49'0 0.0
2017-Dec-08 20:58N 44°10' E 028°49'0 0.0
2017-Dec-08 20:28N 44°10' E 028°49'0 0.0
2017-Dec-08 19:58N 44°10' E 028°49'0 0.0
2017-Dec-08 19:28N 44°10' E 028°49'0 0.0
2017-Dec-08 18:58N 44°10' E 028°49'  

Dump ship's entire track history